Time;durP1;ratioP1;P1;durP2;ratioP2;P2;SDS_P1;SDS_P2;PMS_P1;PMS_P2;Temp;Humidity;BMP_temperature;BMP_pressure;BME280_temperature;BME280_humidity;BME280_pressure;Samples;Min_cycle;Max_cycle;Signal;HPM_P1;HPM_P2
2022/05/07 00:00:41;;;;;;;12.52;8.48;;;13.40;99.90;;;;;;6196817;23;20019;-91
2022/05/07 00:03:07;;;;;;;11.60;7.82;;;13.60;99.90;;;;;;6195886;23;20008;-92
2022/05/07 00:05:33;;;;;;;10.55;8.15;;;13.40;99.90;;;;;;6198071;23;20023;-92
2022/05/07 00:08:09;;;;;;;;;;;;;;;;;;;;;
2022/05/07 00:10:36;;;;;;;18.80;9.40;;;13.40;99.90;;;;;;6218457;23;20020;-93
2022/05/07 00:13:04;;;;;;;12.00;7.20;;;12.80;99.90;;;;;;6194295;23;20526;-93
2022/05/07 00:15:30;;;;;;;10.88;7.32;;;13.40;99.90;;;;;;6193952;23;20051;-92
2022/05/07 00:18:04;;;;;;;7.35;6.38;;;13.40;99.90;;;;;;6193888;23;20039;-92
2022/05/07 00:20:32;;;;;;;12.35;6.70;;;12.40;99.90;;;;;;6171381;23;20020;-92
2022/05/07 00:22:58;;;;;;;11.88;7.20;;;13.40;99.90;;;;;;6171429;23;20019;-92
2022/05/07 00:25:25;;;;;;;19.45;7.80;;;13.50;99.90;;;;;;6195756;23;20016;-92
2022/05/07 00:28:00;;;;;;;;;;;13.30;99.90;;;;;;6195845;23;20016;-95
2022/05/07 00:30:29;;;;;;;9.88;6.57;;;12.80;99.90;;;;;;6219725;23;20316;-92
2022/05/07 00:32:54;;;;;;;9.27;6.95;;;13.40;99.90;;;;;;6194241;23;20016;-92
2022/05/07 00:35:20;;;;;;;12.10;7.83;;;13.30;99.90;;;;;;6197177;23;20035;-93
2022/05/07 00:37:48;;;;;;;12.52;7.78;;;12.00;99.90;;;;;;6171583;23;20027;-92
2022/05/07 00:40:14;;;;;;;10.13;7.50;;;12.70;99.90;;;;;;6218198;23;20331;-92
2022/05/07 00:42:43;;;;;;;9.20;7.43;;;13.30;99.90;;;;;;6194497;23;20020;-92
2022/05/07 00:45:09;;;;;;;11.27;8.63;;;13.30;99.90;;;;;;6168867;23;20016;-93
2022/05/07 00:47:35;;;;;;;11.20;7.78;;;12.80;99.90;;;;;;6219605;23;20058;-93
2022/05/07 00:52:49;;;;;;;12.27;8.43;;;13.30;99.90;;;;;;6220963;23;20333;-93
2022/05/07 00:55:15;;;;;;;9.25;6.80;;;13.30;99.90;;;;;;6193015;23;20124;-94
2022/05/07 00:57:41;;;;;;;7.72;6.57;;;13.30;99.90;;;;;;6193677;23;20016;-92
2022/05/07 01:00:09;;;;;;;9.55;6.43;;;13.20;99.90;;;;;;6193620;23;20432;-93
2022/05/07 01:02:36;;;;;;;11.15;6.82;;;13.10;99.90;;;;;;6195822;23;20027;-92
2022/05/07 01:05:03;;;;;;;;;;;13.10;99.90;;;;;;6195111;23;20027;-92
2022/05/07 01:07:32;;;;;;;10.27;7.23;;;13.10;99.90;;;;;;6194538;23;19919;-93
2022/05/07 01:10:04;;;;;;;12.35;7.57;;;13.10;99.90;;;;;;6194177;23;20047;-93
2022/05/07 01:12:33;;;;;;;10.93;6.45;;;13.10;99.90;;;;;;6195388;23;20020;-93
2022/05/07 01:15:00;;;;;;;8.88;6.72;;;13.20;99.90;;;;;;6194516;23;20038;-93
2022/05/07 01:17:26;;;;;;;7.32;5.43;;;13.10;99.90;;;;;;6194788;23;20066;-92
2022/05/07 01:19:53;;;;;;;11.27;6.82;;;13.10;99.90;;;;;;6194766;23;20023;-91
2022/05/07 01:22:20;;;;;;;10.82;7.53;;;13.20;99.90;;;;;;6195663;23;20213;-92
2022/05/07 01:24:46;;;;;;;;;;;13.20;99.90;;;;;;6196220;23;20016;-92
2022/05/07 01:27:11;;;;;;;9.65;7.22;;;13.20;99.90;;;;;;6194338;23;19958;-93
2022/05/07 01:29:38;;;;;;;11.10;7.03;;;13.30;99.90;;;;;;6195017;23;20157;-92
2022/05/07 01:32:06;;;;;;;12.38;8.27;;;13.20;99.90;;;;;;6218906;23;20471;-92
2022/05/07 01:34:32;;;;;;;8.48;6.88;;;13.30;99.90;;;;;;6194198;23;20020;-92
2022/05/07 01:36:58;;;;;;;10.33;7.60;;;13.30;99.90;;;;;;6196960;23;20062;-92
2022/05/07 01:39:24;;;;;;;12.02;8.00;;;13.20;99.90;;;;;;6196048;23;20401;-92
2022/05/07 01:41:50;;;;;;;12.87;7.70;;;13.30;99.90;;;;;;6194328;23;20023;-92
2022/05/07 01:44:18;;;;;;;16.20;9.23;;;13.10;99.90;;;;;;6195034;23;20059;-92
2022/05/07 01:49:28;;;;;;;13.05;8.07;;;13.40;99.90;;;;;;6220822;23;20020;-93
2022/05/07 01:51:53;;;;;;;10.67;8.90;;;13.30;99.90;;;;;;6196867;23;20313;-91
2022/05/07 01:54:22;;;;;;;12.60;7.83;;;13.30;99.90;;;;;;6169856;23;20023;-91
2022/05/07 01:56:47;;;;;;;14.90;9.02;;;13.40;99.90;;;;;;6171584;23;20098;-92
2022/05/07 01:59:13;;;;;;;12.03;7.67;;;13.30;99.90;;;;;;6170291;23;20056;-92
2022/05/07 02:01:39;;;;;;;13.53;8.67;;;13.30;99.90;;;;;;6222489;23;20035;-91
2022/05/07 02:04:05;;;;;;;13.53;7.80;;;13.20;99.90;;;;;;6221979;23;20091;-92
2022/05/07 02:06:31;;;;;;;11.03;8.63;;;13.30;99.90;;;;;;6196202;23;20071;-91
2022/05/07 02:09:02;;;;;;;15.43;8.37;;;13.30;99.90;;;;;;6221476;23;20143;-92
2022/05/07 02:11:31;;;;;;;12.48;8.38;;;13.30;99.90;;;;;;6195598;23;20106;-92
2022/05/07 02:13:57;;;;;;;14.98;9.70;;;13.20;99.90;;;;;;6220621;23;20016;-92
2022/05/07 02:16:22;;;;;;;16.17;8.90;;;13.20;99.90;;;;;;6195734;23;20026;-92
2022/05/07 02:18:51;;;;;;;12.60;8.53;;;13.20;99.90;;;;;;6196373;23;20012;-92
2022/05/07 02:21:16;;;;;;;14.05;9.68;;;13.30;99.90;;;;;;6170243;23;20336;-92
2022/05/07 02:23:42;;;;;;;11.50;8.70;;;13.20;99.90;;;;;;6196814;23;20012;-92
2022/05/07 02:26:11;;;;;;;18.03;9.03;;;13.20;99.90;;;;;;6195934;23;20277;-92
2022/05/07 02:28:37;;;;;;;12.60;8.30;;;13.20;99.90;;;;;;6171384;23;20016;-92
2022/05/07 02:31:08;;;;;;;10.60;7.67;;;13.30;99.90;;;;;;6220949;23;20066;-92
2022/05/07 02:33:36;;;;;;;14.30;8.40;;;13.20;99.90;;;;;;6196835;23;20271;-92
2022/05/07 02:36:02;;;;;;;14.70;8.60;;;13.30;99.90;;;;;;6172340;23;20016;-92
2022/05/07 02:38:28;;;;;;;14.00;7.90;;;13.20;99.90;;;;;;6197008;23;20464;-92
2022/05/07 02:43:45;;;;;;;13.45;8.65;;;13.10;99.90;;;;;;6220337;23;20016;-92
2022/05/07 02:46:14;;;;;;;14.45;9.13;;;13.10;99.90;;;;;;6194874;23;20024;-94
2022/05/07 02:48:44;;;;;;;12.00;7.93;;;13.20;99.90;;;;;;6195224;23;20012;-92
2022/05/07 02:51:10;;;;;;;15.15;9.15;;;13.20;99.90;;;;;;6196227;23;20016;-92
2022/05/07 02:53:41;;;;;;;13.13;9.15;;;13.10;99.90;;;;;;6196901;23;20044;-92
2022/05/07 02:56:09;;;;;;;15.82;9.77;;;13.10;99.90;;;;;;6196653;23;20023;-92
2022/05/07 02:58:35;;;;;;;16.20;8.85;;;13.10;99.90;;;;;;6170598;23;20020;-92
2022/05/07 03:01:01;;;;;;;13.10;8.30;;;13.10;99.90;;;;;;6194693;23;20012;-92
2022/05/07 03:03:27;;;;;;;13.90;10.38;;;13.10;99.90;;;;;;6195842;23;20048;-92
2022/05/07 03:05:55;;;;;;;14.90;8.47;;;12.30;99.90;;;;;;6196352;23;20023;-93
2022/05/07 03:08:23;;;;;;;14.80;9.70;;;13.00;99.90;;;;;;6173390;23;20090;-93
2022/05/07 03:10:50;;;;;;;18.10;9.55;;;13.20;99.90;;;;;;6195690;23;20016;-92
2022/05/07 03:13:16;;;;;;;14.13;8.90;;;13.00;99.90;;;;;;6192912;23;20047;-93
2022/05/07 03:15:41;;;;;;;14.10;8.90;;;12.20;99.90;;;;;;6194839;23;20027;-92
2022/05/07 03:18:17;;;;;;;;;;;;;;;;;;;;;
2022/05/07 03:20:46;;;;;;;11.10;8.23;;;12.90;99.90;;;;;;6219789;23;20019;-93
2022/05/07 03:23:14;;;;;;;13.75;9.30;;;12.90;99.90;;;;;;6194826;23;20023;-92
2022/05/07 03:25:47;;;;;;;13.77;8.90;;;13.00;99.90;;;;;;6194565;23;20015;-92
2022/05/07 03:28:15;;;;;;;14.32;8.98;;;13.00;99.90;;;;;;6194997;23;20335;-92
2022/05/07 03:30:43;;;;;;;17.33;9.57;;;12.80;99.90;;;;;;6219464;23;20015;-91
2022/05/07 03:33:16;;;;;;;17.42;10.20;;;12.90;99.90;;;;;;6194605;23;20422;-92
2022/05/07 03:35:47;;;;;;;14.38;9.70;;;12.90;99.90;;;;;;6171682;23;20012;-92
2022/05/07 03:38:13;;;;;;;16.55;9.85;;;12.90;99.90;;;;;;6194572;23;20012;-92
2022/05/07 03:40:39;;;;;;;13.57;9.10;;;12.90;99.90;;;;;;6194146;23;20073;-93
2022/05/07 03:43:05;;;;;;;16.47;10.73;;;12.90;99.90;;;;;;6196276;23;20008;-92
2022/05/07 03:45:32;;;;;;;12.13;8.52;;;12.00;99.90;;;;;;6195029;23;20050;-92
2022/05/07 03:48:06;;;;;;;14.38;9.35;;;12.90;99.90;;;;;;6195427;23;20012;-92
2022/05/07 03:50:32;;;;;;;17.52;9.88;;;12.70;99.90;;;;;;6169369;23;20095;-92
2022/05/07 03:55:45;;;;;;;13.80;9.30;;;12.80;99.90;;;;;;6218577;23;20020;-92
2022/05/07 03:58:17;;;;;;;15.25;10.55;;;12.80;99.90;;;;;;6195443;23;20012;-93
2022/05/07 04:00:47;;;;;;;13.73;9.15;;;12.80;99.90;;;;;;6195139;23;20047;-92
2022/05/07 04:03:20;;;;;;;17.63;10.43;;;12.70;99.90;;;;;;6194615;23;20090;-92
2022/05/07 04:05:46;;;;;;;15.40;8.85;;;12.80;99.90;;;;;;6194139;23;20016;-92
2022/05/07 04:08:12;;;;;;;16.17;10.52;;;12.70;99.90;;;;;;6192581;23;20459;-93
2022/05/07 04:12:24;;;;;;;15.40;8.32;;;12.70;99.90;;;;;;5130552;27;1328806;-92
2022/05/07 04:14:50;;;;;;;12.52;8.07;;;12.60;99.90;;;;;;5148824;27;20042;-92
2022/05/07 04:17:18;;;;;;;13.77;9.63;;;12.80;99.90;;;;;;5151349;27;20060;-92
2022/05/07 04:19:46;;;;;;;15.02;9.63;;;12.70;99.90;;;;;;5136416;27;20038;-92
2022/05/07 04:22:17;;;;;;;13.23;10.75;;;12.70;99.90;;;;;;5139743;27;20094;-92
2022/05/07 04:24:43;;;;;;;13.43;8.77;;;12.70;99.90;;;;;;5155374;27;20046;-91
2022/05/07 04:27:11;;;;;;;13.90;9.53;;;13.70;99.90;;;;;;5140854;27;20495;-91
2022/05/07 04:29:40;;;;;;;18.13;10.65;;;12.70;99.90;;;;;;5116243;27;20045;-91
2022/05/07 04:32:06;;;;;;;11.88;8.05;;;12.70;99.90;;;;;;5120645;27;20083;-90
2022/05/07 04:34:32;;;;;;;17.08;10.48;;;12.80;99.90;;;;;;5127230;27;20045;-91
2022/05/07 04:37:00;;;;;;;12.40;8.33;;;12.80;99.90;;;;;;5117525;27;20133;-92
2022/05/07 04:39:34;;;;;;;16.02;9.00;;;12.80;99.90;;;;;;5133096;27;20056;-92
2022/05/07 04:42:01;;;;;;;15.20;9.25;;;12.80;99.90;;;;;;5155382;27;20054;-91
2022/05/07 04:44:27;;;;;;;14.57;9.07;;;12.90;99.90;;;;;;5136716;27;20046;-91
2022/05/07 04:46:55;;;;;;;15.37;9.13;;;12.90;99.90;;;;;;5128018;27;20369;-91
2022/05/07 04:49:22;;;;;;;13.90;9.32;;;13.00;99.90;;;;;;5135159;27;20099;-91
2022/05/07 04:51:51;;;;;;;16.70;9.60;;;12.90;99.90;;;;;;5116263;27;20039;-91
2022/05/07 04:54:20;;;;;;;14.75;9.38;;;12.60;99.90;;;;;;5128844;27;20564;-91
2022/05/07 04:56:51;;;;;;;13.35;9.02;;;13.10;99.90;;;;;;5135410;27;20544;-91
2022/05/07 04:59:26;;;;;;;14.40;8.82;;;12.20;99.90;;;;;;5136875;27;20125;-91
2022/05/07 05:01:54;;;;;;;20.10;9.63;;;13.10;99.90;;;;;;5134846;27;20510;-90
2022/05/07 05:04:23;;;;;;;18.42;10.23;;;13.00;99.90;;;;;;5142249;27;20042;-92
2022/05/07 05:06:58;;;;;;;;;;;;;;;;;;;;;
2022/05/07 05:09:30;;;;;;;11.18;8.50;;;13.00;99.90;;;;;;5161709;27;20058;-92
2022/05/07 05:11:56;;;;;;;12.60;9.40;;;13.00;99.90;;;;;;5153359;27;20049;-92
2022/05/07 05:17:08;;;;;;;13.02;9.55;;;13.00;99.90;;;;;;5154446;27;20050;-92
2022/05/07 05:19:37;;;;;;;13.30;9.52;;;13.00;99.90;;;;;;5127678;27;20049;-93
2022/05/07 05:22:05;;;;;;;14.07;8.90;;;11.90;99.90;;;;;;5132006;27;20042;-92
2022/05/07 05:24:37;;;;;;;14.65;9.55;;;13.10;99.90;;;;;;5113648;27;20047;-92
2022/05/07 05:27:03;;;;;;;15.77;9.60;;;13.30;99.90;;;;;;5128038;27;20035;-92
2022/05/07 05:29:29;;;;;;;14.63;9.23;;;13.00;99.90;;;;;;5101843;27;20081;-91
2022/05/07 05:31:54;;;;;;;17.40;9.40;;;13.00;99.90;;;;;;5107225;27;20091;-91
2022/05/07 05:34:20;;;;;;;13.40;9.07;;;13.20;99.90;;;;;;5143131;27;20372;-92
2022/05/07 05:36:49;;;;;;;14.80;9.67;;;13.20;99.90;;;;;;5123624;27;20099;-92
2022/05/07 05:39:15;;;;;;;12.38;9.40;;;13.10;99.90;;;;;;5144486;27;20046;-92
2022/05/07 05:41:44;;;;;;;14.23;8.35;;;13.20;99.90;;;;;;5145068;27;20487;-92
2022/05/07 05:44:15;;;;;;;14.60;9.30;;;13.20;99.90;;;;;;5116048;27;20491;-92
2022/05/07 05:46:43;;;;;;;17.23;10.18;;;13.30;99.90;;;;;;5134057;27;20492;-92
2022/05/07 05:49:12;;;;;;;15.98;8.90;;;14.00;99.90;;;;;;5111744;27;20042;-91
2022/05/07 05:51:50;;;;;;;15.30;9.73;;;13.40;99.90;;;;;;5119458;27;20061;-92
2022/05/07 05:54:16;;;;;;;15.27;9.20;;;13.30;99.90;;;;;;5136255;27;20039;-91
2022/05/07 05:56:42;;;;;;;18.73;10.33;;;13.30;99.90;;;;;;5123211;27;20045;-91
2022/05/07 05:59:08;;;;;;;15.57;9.37;;;13.40;99.90;;;;;;5123711;27;20296;-93
2022/05/07 06:01:34;;;;;;;13.97;10.00;;;13.40;99.90;;;;;;5101234;27;20498;-92
2022/05/07 06:04:00;;;;;;;16.55;10.27;;;13.50;99.90;;;;;;5122911;27;20184;-91
2022/05/07 06:06:28;;;;;;;14.07;9.47;;;13.60;99.90;;;;;;5105761;27;20035;-92
2022/05/07 06:08:54;;;;;;;14.82;10.20;;;13.70;99.90;;;;;;5128212;27;20050;-91
2022/05/07 06:11:22;;;;;;;13.40;9.93;;;13.80;99.90;;;;;;5123572;27;20054;-91
2022/05/07 06:13:48;;;;;;;15.02;10.50;;;14.00;99.90;;;;;;5117045;27;20354;-91
2022/05/07 06:16:14;;;;;;;15.85;9.77;;;14.00;99.90;;;;;;5131873;27;20046;-91
2022/05/07 06:18:42;;;;;;;13.68;9.75;;;13.90;99.90;;;;;;5140212;27;20046;-91
2022/05/07 06:21:08;;;;;;;16.83;10.20;;;13.40;99.90;;;;;;5130354;27;20047;-91
2022/05/07 06:23:34;;;;;;;13.50;9.80;;;13.20;99.90;;;;;;5121990;27;20053;-91
2022/05/07 06:29:02;;;;;;;12.27;9.20;;;14.00;99.90;;;;;;5111206;27;20047;-92
2022/05/07 06:31:30;;;;;;;16.48;9.30;;;14.00;99.90;;;;;;5117761;27;20460;-86
2022/05/07 06:33:56;;;;;;;13.48;8.85;;;14.00;99.90;;;;;;5081749;27;20174;-85
2022/05/07 06:36:21;;;;;;;13.20;9.32;;;14.20;99.90;;;;;;5108425;27;20144;-85
2022/05/07 06:38:47;;;;;;;13.57;9.93;;;14.20;99.90;;;;;;5142375;27;20073;-86
2022/05/07 06:41:13;;;;;;;14.00;9.77;;;13.60;99.90;;;;;;5110274;27;20103;-86
2022/05/07 06:43:39;;;;;;;13.47;10.00;;;14.30;99.90;;;;;;5129816;27;20046;-86
2022/05/07 06:46:04;;;;;;;17.90;10.52;;;14.40;99.90;;;;;;5103313;27;20100;-86
2022/05/07 06:48:30;;;;;;;12.57;9.53;;;14.50;99.90;;;;;;5099840;27;20078;-86
2022/05/07 06:50:56;;;;;;;18.47;9.13;;;14.60;99.90;;;;;;5132814;27;20811;-86
2022/05/07 06:53:22;;;;;;;11.93;8.82;;;14.70;99.90;;;;;;5106114;27;20303;-87
2022/05/07 06:55:59;;;;;;;12.67;10.27;;;14.80;99.90;;;;;;5118633;27;20027;-87
2022/05/07 06:58:35;;;;;;;11.32;8.38;;;15.00;99.90;;;;;;5135868;27;20141;-86
2022/05/07 07:01:02;;;;;;;15.25;8.35;;;15.10;99.90;;;;;;5123772;27;20103;-86
2022/05/07 07:03:28;;;;;;;11.73;8.65;;;15.10;99.90;;;;;;5119352;27;20122;-85
2022/05/07 07:05:58;;;;;;;13.98;8.40;;;15.10;99.90;;;;;;5126294;27;20109;-82
2022/05/07 07:08:24;;;;;;;19.08;8.55;;;15.20;99.90;;;;;;5121993;27;20051;-86
2022/05/07 07:10:50;;;;;;;10.95;8.77;;;15.30;99.90;;;;;;5099164;27;20088;-84
2022/05/07 07:13:16;;;;;;;12.50;9.45;;;15.40;99.90;;;;;;5126500;27;20055;-84
2022/05/07 07:15:43;;;;;;;14.30;7.65;;;15.60;99.90;;;;;;5134100;27;20043;-87
2022/05/07 07:18:09;;;;;;;12.25;8.30;;;15.70;99.90;;;;;;5146949;27;20504;-86
2022/05/07 07:20:43;;;;;;;14.02;8.35;;;15.80;99.90;;;;;;5143603;27;20035;-86
2022/05/07 07:23:11;;;;;;;12.27;7.93;;;15.80;99.90;;;;;;5145437;27;20038;-87
2022/05/07 07:25:37;;;;;;;11.82;6.88;;;15.90;99.90;;;;;;5137645;27;20070;-85
2022/05/07 07:28:03;;;;;;;12.32;8.45;;;16.10;99.90;;;;;;5136152;27;20400;-88
2022/05/07 07:30:32;;;;;;;10.13;7.22;;;16.30;99.90;;;;;;5111558;27;20046;-87
2022/05/07 07:32:58;;;;;;;12.63;8.27;;;16.60;99.90;;;;;;5130165;27;20046;-86
2022/05/07 07:35:24;;;;;;;10.82;7.03;;;16.30;99.90;;;;;;5117728;27;20121;-86
2022/05/07 07:37:50;;;;;;;13.70;6.60;;;17.00;99.90;;;;;;5109644;27;20047;-87
2022/05/07 07:40:16;;;;;;;9.13;7.20;;;17.10;99.90;;;;;;5132598;27;20042;-85
2022/05/07 07:42:41;;;;;;;11.20;6.97;;;17.20;99.90;;;;;;5099220;27;20149;-86
2022/05/07 07:48:05;;;;;;;8.35;5.75;;;17.30;99.90;;;;;;5132601;27;20157;-87
2022/05/07 07:50:32;;;;;;;7.90;6.25;;;17.30;99.90;;;;;;5100295;27;20043;-89
2022/05/07 07:53:01;;;;;;;8.00;5.90;;;17.30;99.90;;;;;;5111374;27;20051;-87
2022/05/07 07:55:27;;;;;;;9.93;6.47;;;17.40;99.90;;;;;;5146328;27;20503;-87
2022/05/07 07:57:57;;;;;;;10.52;6.82;;;17.30;99.90;;;;;;5117309;27;20083;-86
2022/05/07 08:00:24;;;;;;;10.88;6.30;;;17.40;99.90;;;;;;5133135;27;20133;-84
2022/05/07 08:02:52;;;;;;;8.80;6.47;;;17.40;99.90;;;;;;5131920;27;20039;-84
2022/05/07 08:05:27;;;;;;;10.10;7.00;;;17.40;99.90;;;;;;5126314;27;20099;-88
2022/05/07 08:13:24;;;;;;;11.30;6.68;;;17.40;99.90;;;;;;5116804;27;20488;-89
2022/05/07 08:15:50;;;;;;;11.73;7.18;;;17.50;99.90;;;;;;5133664;27;20055;-87
2022/05/07 08:18:16;;;;;;;12.15;7.70;;;17.50;99.90;;;;;;5107408;28;20145;-89
2022/05/07 08:20:42;;;;;;;;;;;17.50;99.90;;;;;;5127999;27;20038;-90
2022/05/07 08:23:09;;;;;;;10.05;7.15;;;17.50;99.90;;;;;;5097394;27;19965;-90
2022/05/07 08:25:35;;;;;;;14.63;7.50;;;17.50;99.90;;;;;;5128416;27;20039;-91
2022/05/07 08:28:02;;;;;;;13.98;8.15;;;17.50;99.90;;;;;;5113333;27;20111;-91
2022/05/07 08:30:27;;;;;;;18.92;10.00;;;17.50;99.90;;;;;;5114308;27;20039;-90
2022/05/07 08:32:53;;;;;;;13.55;7.97;;;17.50;99.90;;;;;;5109820;27;20054;-89
2022/05/07 08:35:19;;;;;;;13.20;9.00;;;17.50;99.90;;;;;;5098257;27;20066;-89
2022/05/07 08:37:46;;;;;;;10.25;7.20;;;17.60;99.90;;;;;;5111505;27;20035;-88
2022/05/07 08:40:16;;;;;;;8.35;6.75;;;17.60;99.90;;;;;;5113070;27;20042;-89
2022/05/07 08:42:42;;;;;;;24.42;9.18;;;17.60;99.90;;;;;;5129036;27;20055;-88
2022/05/07 08:45:09;;;;;;;8.48;7.05;;;17.60;99.90;;;;;;5115511;27;20042;-88
2022/05/07 08:47:35;;;;;;;;;;;17.60;99.90;;;;;;5092286;27;20042;-88
2022/05/07 08:50:00;;;;;;;9.48;7.57;;;17.60;99.90;;;;;;5112458;27;19919;-89
2022/05/07 08:52:27;;;;;;;10.57;7.05;;;17.60;99.90;;;;;;5110424;27;20061;-89
2022/05/07 08:54:53;;;;;;;11.98;7.70;;;17.50;99.90;;;;;;5113805;27;20103;-90
2022/05/07 08:57:19;;;;;;;15.20;8.00;;;17.70;99.90;;;;;;5129561;27;20039;-87
2022/05/07 08:59:50;;;;;;;7.93;6.63;;;17.70;99.90;;;;;;5139972;27;20107;-83
2022/05/07 09:02:16;;;;;;;16.35;7.93;;;17.80;99.90;;;;;;5125365;27;20039;-86
2022/05/07 09:04:53;;;;;;;13.57;8.97;;;17.90;99.90;;;;;;5163581;27;20399;-87
2022/05/07 09:07:19;;;;;;;11.13;8.18;;;17.90;99.90;;;;;;5144041;27;20296;-85
2022/05/07 09:09:48;;;;;;;10.25;7.75;;;17.90;99.90;;;;;;5151082;27;20094;-85
2022/05/07 09:12:30;;;;;;;15.45;9.18;;;18.00;99.90;;;;;;5165275;27;20070;-86
2022/05/07 09:15:07;;;;;;;12.07;7.95;;;18.10;99.90;;;;;;5122804;27;20057;-86
2022/05/07 09:17:34;;;;;;;16.05;9.30;;;18.20;99.90;;;;;;5149962;27;20096;-88
2022/05/07 09:20:22;;;;;;;13.98;8.00;;;18.10;99.90;;;;;;5123045;27;20047;-95
2022/05/07 09:22:56;;;;;;;14.15;8.82;;;18.20;99.90;;;;;;5132417;27;20095;-90
2022/05/07 09:25:27;;;;;;;13.40;8.25;;;18.20;99.90;;;;;;5129021;27;20051;-88
2022/05/07 09:27:56;;;;;;;14.10;7.57;;;18.30;99.90;;;;;;5119880;27;20100;-90
2022/05/07 09:30:27;;;;;;;9.95;8.48;;;18.40;99.90;;;;;;5135283;27;20073;-90
2022/05/07 09:32:55;;;;;;;12.40;7.80;;;18.30;99.90;;;;;;5144714;27;20039;-90
2022/05/07 09:38:13;;;;;;;12.38;8.43;;;18.50;99.90;;;;;;5152851;27;20049;-92
2022/05/07 09:40:43;;;;;;;10.00;7.60;;;18.50;99.90;;;;;;5136065;27;20078;-91
2022/05/07 09:43:10;;;;;;;14.38;8.77;;;18.60;99.90;;;;;;5141825;27;20066;-93
2022/05/07 09:45:38;;;;;;;8.98;6.80;;;18.70;99.90;;;;;;5124534;27;20085;-92
2022/05/07 09:48:05;;;;;;;15.30;7.55;;;18.80;99.90;;;;;;5113553;27;20450;-88
2022/05/07 09:58:38;;;;;;;10.05;6.68;;;18.90;99.90;;;;;;5137789;27;20092;-87
2022/05/07 10:01:13;;;;;;;10.35;7.07;;;18.90;99.90;;;;;;5138313;27;20069;-91
2022/05/07 10:04:20;;;;;;;10.60;6.93;;;19.00;99.90;;;;;;5114806;27;20051;-91
2022/05/07 10:06:56;;;;;;;12.07;7.00;;;19.00;99.90;;;;;;5100144;27;20446;-89
2022/05/07 10:09:39;;;;;;;11.57;6.82;;;19.10;99.90;;;;;;5134423;27;20047;-90
2022/05/07 10:12:07;;;;;;;9.48;7.63;;;19.00;99.90;;;;;;5128256;27;20141;-90
2022/05/07 10:14:32;;;;;;;12.55;6.93;;;19.10;99.90;;;;;;5121553;27;20103;-90
2022/05/07 10:17:05;;;;;;;10.02;7.85;;;19.20;99.90;;;;;;5113499;27;20202;-92
2022/05/07 10:19:35;;;;;;;10.82;7.35;;;19.10;99.90;;;;;;5131075;27;20487;-91
2022/05/07 10:22:02;;;;;;;12.68;7.68;;;19.20;99.90;;;;;;5133441;27;20066;-94
2022/05/07 10:24:28;;;;;;;10.32;7.38;;;19.30;99.90;;;;;;5115579;27;20054;-92
2022/05/07 10:26:53;;;;;;;13.40;7.90;;;19.40;99.90;;;;;;5103055;27;20396;-95
2022/05/07 10:29:26;;;;;;;11.00;7.68;;;19.50;99.90;;;;;;5122292;27;20074;-92
2022/05/07 10:32:05;;;;;;;8.65;7.40;;;19.60;99.90;;;;;;5102625;27;20047;-89
2022/05/07 10:34:30;;;;;;;10.15;7.10;;;19.70;99.90;;;;;;5117230;27;20130;-93
2022/05/07 10:37:07;;;;;;;9.30;6.55;;;19.80;99.90;;;;;;5109003;27;20189;-94
2022/05/07 10:39:34;;;;;;;;;;;19.90;99.90;;;;;;5121314;27;20054;-94
2022/05/07 10:42:01;;;;;;;7.88;5.85;;;19.80;99.90;;;;;;5150303;27;19920;-95
2022/05/07 10:44:30;;;;;;;8.63;6.38;;;19.70;99.90;;;;;;5134618;27;20043;-93
2022/05/07 10:47:11;;;;;;;10.98;7.35;;;19.70;99.90;;;;;;5115673;27;20046;-93
2022/05/07 10:49:54;;;;;;;13.32;6.85;;;19.60;99.90;;;;;;5135397;27;20488;-94
2022/05/07 10:52:31;;;;;;;12.45;7.18;;;19.50;99.90;;;;;;5137201;27;20039;-92
2022/05/07 10:55:13;;;;;;;;;;;19.60;99.90;;;;;;5125516;27;20042;-95
2022/05/07 10:57:48;;;;;;;11.45;6.93;;;19.60;99.90;;;;;;5129920;27;19919;-95
2022/05/07 11:00:23;;;;;;;8.20;6.50;;;19.60;99.90;;;;;;5137410;27;20130;-95
2022/05/07 11:02:56;;;;;;;15.05;7.72;;;19.60;99.90;;;;;;5100890;27;20047;-94
2022/05/07 11:05:31;;;;;;;15.52;8.55;;;19.60;99.90;;;;;;5119251;27;20093;-91
2022/05/07 11:07:58;;;;;;;10.18;7.00;;;19.60;99.90;;;;;;5136104;27;20047;-96
2022/05/07 11:10:24;;;;;;;11.98;7.20;;;19.70;99.90;;;;;;5138369;27;20047;-90
2022/05/07 11:12:50;;;;;;;15.88;8.73;;;19.70;99.90;;;;;;5135416;27;20178;-92
2022/05/07 11:15:25;;;;;;;7.55;6.47;;;19.80;99.90;;;;;;5115800;27;20050;-94
2022/05/07 11:17:51;;;;;;;7.70;5.97;;;20.00;99.90;;;;;;5123399;27;20049;-92
2022/05/07 11:20:35;;;;;;;10.15;6.82;;;20.10;99.90;;;;;;5121431;27;20138;-94
2022/05/07 11:23:03;;;;;;;13.32;7.18;;;20.30;99.90;;;;;;5129244;27;20043;-96
2022/05/07 11:25:30;;;;;;;9.13;6.78;;;20.40;99.90;;;;;;5101939;27;20131;-86
2022/05/07 11:27:57;;;;;;;9.40;6.55;;;20.50;99.90;;;;;;5122541;27;20043;-89
2022/05/07 11:30:24;;;;;;;10.05;7.75;;;20.60;99.90;;;;;;5118187;27;20054;-88
2022/05/07 11:32:49;;;;;;;11.07;7.35;;;20.70;99.90;;;;;;5136706;27;20038;-87
2022/05/07 11:35:15;;;;;;;15.82;11.27;;;20.70;99.90;;;;;;5115887;27;20043;-87
2022/05/07 11:37:45;;;;;;;12.85;9.35;;;20.60;99.90;;;;;;5146292;27;20070;-88
2022/05/07 11:40:13;;;;;;;11.35;8.82;;;20.60;99.90;;;;;;5133775;27;20458;-87
2022/05/07 11:42:40;;;;;;;12.35;8.27;;;20.50;99.90;;;;;;5118036;27;20043;-87
2022/05/07 11:48:13;;;;;;;14.35;10.98;;;20.30;99.90;;;;;;5116739;27;20047;-87
2022/05/07 11:50:41;;;;;;;13.85;9.50;;;20.20;99.90;;;;;;5108982;27;20049;-89
2022/05/07 11:53:10;;;;;;;16.20;9.40;;;20.10;99.90;;;;;;5113417;27;20114;-86
2022/05/07 11:55:36;;;;;;;12.32;9.02;;;20.00;99.90;;;;;;5146437;27;20073;-85
2022/05/07 11:58:21;;;;;;;15.48;10.70;;;20.00;99.90;;;;;;5136018;27;20507;-86
2022/05/07 12:00:51;;;;;;;15.52;10.45;;;20.10;99.90;;;;;;5140597;27;20038;-86
2022/05/07 12:03:24;;;;;;;16.90;8.98;;;20.10;99.90;;;;;;5115418;28;20047;-84
2022/05/07 12:05:51;;;;;;;14.32;10.30;;;20.00;99.90;;;;;;5126763;27;20502;-85
2022/05/07 12:08:19;;;;;;;13.15;10.15;;;20.00;99.90;;;;;;5134576;27;20491;-82
2022/05/07 12:10:46;;;;;;;15.18;9.85;;;20.00;99.90;;;;;;5151467;27;20034;-82
2022/05/07 12:13:16;;;;;;;15.90;9.77;;;19.70;99.90;;;;;;5123757;27;20066;-84
2022/05/07 12:18:27;;;;;;;15.75;9.98;;;20.20;99.90;;;;;;5122816;27;22997;-85
2022/05/07 12:20:54;;;;;;;15.50;9.82;;;20.30;99.90;;;;;;5149851;27;20039;-86
2022/05/07 12:31:33;;;;;;;12.80;9.13;;;20.60;99.90;;;;;;5138856;27;20046;-90
2022/05/07 12:34:02;;;;;;;16.95;10.15;;;20.50;99.90;;;;;;5117923;27;20518;-89
2022/05/07 12:36:28;;;;;;;19.05;10.93;;;20.40;99.90;;;;;;5119425;27;20043;-86
2022/05/07 12:38:54;;;;;;;14.43;10.25;;;20.20;99.90;;;;;;5129800;27;20095;-88
2022/05/07 12:41:20;;;;;;;17.77;11.43;;;20.20;99.90;;;;;;5104167;27;20488;-89
2022/05/07 12:43:46;;;;;;;;;;;20.30;99.90;;;;;;5085685;27;20046;-88
2022/05/07 12:46:11;;;;;;;13.20;9.48;;;20.40;99.90;;;;;;5101834;27;19964;-87
2022/05/07 12:48:38;;;;;;;14.43;9.02;;;20.40;99.90;;;;;;5084916;27;20046;-93
2022/05/07 12:51:03;;;;;;;;;;;20.50;99.90;;;;;;5102272;27;20073;-88
2022/05/07 12:53:29;;;;;;;14.57;8.27;;;20.80;99.90;;;;;;5119166;27;19919;-88
2022/05/07 12:55:55;;;;;;;16.48;9.13;;;20.80;99.90;;;;;;5084764;27;20480;-88
2022/05/07 12:58:20;;;;;;;12.52;8.15;;;20.70;99.90;;;;;;5112464;27;20130;-88
2022/05/07 13:00:46;;;;;;;14.10;7.93;;;20.70;99.90;;;;;;5139334;27;20491;-88
2022/05/07 13:03:12;;;;;;;11.40;7.80;;;20.80;99.90;;;;;;5122401;27;20042;-88
2022/05/07 13:05:40;;;;;;;16.52;8.60;;;20.70;99.90;;;;;;5105638;27;20057;-91
2022/05/07 13:08:06;;;;;;;12.93;7.85;;;20.60;99.90;;;;;;5105706;27;20472;-88
2022/05/07 13:10:35;;;;;;;11.10;7.35;;;20.40;99.90;;;;;;5139065;27;20049;-88
2022/05/07 13:13:02;;;;;;;12.77;7.75;;;20.20;99.90;;;;;;5134894;27;20039;-88
2022/05/07 13:15:28;;;;;;;11.88;8.18;;;20.00;99.90;;;;;;5136029;27;20404;-88
2022/05/07 13:17:59;;;;;;;14.00;7.00;;;19.70;99.90;;;;;;5135615;27;20133;-88
2022/05/07 13:20:26;;;;;;;9.20;5.93;;;19.30;99.90;;;;;;5135923;27;20090;-87
2022/05/07 13:22:53;;;;;;;8.15;5.35;;;19.20;99.90;;;;;;5135408;27;20043;-88
2022/05/07 13:25:22;;;;;;;9.82;5.03;;;19.40;99.90;;;;;;5118480;27;20130;-88
2022/05/07 13:27:49;;;;;;;7.45;4.75;;;19.50;99.90;;;;;;5118172;27;20105;-88
2022/05/07 13:30:17;;;;;;;7.63;5.53;;;19.60;99.90;;;;;;5135531;27;20076;-88
2022/05/07 13:32:44;;;;;;;7.15;4.85;;;19.70;99.90;;;;;;5118809;27;20477;-91
2022/05/07 13:35:11;;;;;;;8.10;4.82;;;19.80;99.90;;;;;;5118255;27;20082;-88
2022/05/07 13:37:37;;;;;;;5.40;4.05;;;19.70;99.90;;;;;;5101483;27;20058;-88
2022/05/07 13:40:03;;;;;;;5.88;4.00;;;19.40;99.90;;;;;;5117744;27;20055;-87